createdAt,value
2022-12-08T00:02:01.186Z,71.46
2022-12-08T00:04:27.907Z,70.87
2022-12-08T00:07:12.754Z,70.09
2022-12-08T00:09:41.705Z,69.62
2022-12-08T00:16:13.041Z,70.06
2022-12-08T00:18:39.739Z,70.10
2022-12-08T00:21:06.326Z,70.62
2022-12-08T00:23:32.898Z,70.59
2022-12-08T00:26:04.038Z,70.57
2022-12-08T00:28:32.441Z,70.19
2022-12-08T00:34:00.980Z,69.18
2022-12-08T00:39:19.054Z,68.89
2022-12-08T00:45:48.569Z,68.84
2022-12-08T00:48:15.580Z,69.27
2022-12-08T00:50:42.127Z,69.68
2022-12-08T00:53:08.691Z,69.60
2022-12-08T00:55:35.314Z,69.72
2022-12-08T00:58:01.996Z,70.02
2022-12-08T01:00:47.298Z,69.72
2022-12-08T01:03:13.925Z,69.60
2022-12-08T01:05:40.515Z,69.45
2022-12-08T01:08:08.214Z,69.78
2022-12-08T01:16:51.048Z,70.90
2022-12-08T01:19:18.081Z,71.36
2022-12-08T01:21:46.197Z,71.05
2022-12-08T01:24:14.783Z,70.54
2022-12-08T01:26:41.612Z,70.19
2022-12-08T01:31:49.711Z,72.17
2022-12-08T01:34:19.223Z,71.91
2022-12-08T01:36:45.830Z,71.97
2022-12-08T01:39:17.955Z,71.86
2022-12-08T01:41:45.716Z,71.96
2022-12-08T01:45:02.918Z,71.72
2022-12-08T01:56:44.326Z,71.06
2022-12-08T01:59:25.189Z,71.49
2022-12-08T02:01:52.488Z,72.83
2022-12-08T02:04:40.752Z,73.33
2022-12-08T02:07:10.051Z,72.47
2022-12-08T02:09:38.716Z,72.41
2022-12-08T02:12:07.244Z,72.54
2022-12-08T02:15:23.703Z,72.05
2022-12-08T02:23:31.810Z,71.24
2022-12-08T02:26:36.144Z,72.64
2022-12-08T02:29:14.771Z,73.07
2022-12-08T02:32:26.718Z,72.97
2022-12-08T02:35:05.270Z,72.99
2022-12-08T02:38:00.972Z,73.55
2022-12-08T02:40:57.055Z,73.02
2022-12-08T02:43:39.664Z,72.58
2022-12-08T02:46:11.223Z,71.80
2022-12-08T02:48:59.762Z,71.56
2022-12-08T02:52:40.103Z,71.38
2022-12-08T03:10:13.918Z,71.29
2022-12-08T03:12:48.132Z,71.37
2022-12-08T03:15:18.400Z,71.25
2022-12-08T03:17:51.306Z,70.98
2022-12-08T03:20:21.489Z,72.74
2022-12-08T03:22:50.661Z,72.54
2022-12-08T03:29:23.795Z,71.96
2022-12-08T03:31:54.778Z,71.64
2022-12-08T03:48:33.144Z,71.32
2022-12-08T03:51:39.186Z,71.54
2022-12-08T03:54:49.460Z,71.31
2022-12-08T03:57:19.970Z,71.39
2022-12-08T04:11:09.082Z,71.36
2022-12-08T04:13:37.534Z,71.97
2022-12-08T04:16:10.277Z,71.98
2022-12-08T04:19:02.734Z,71.57
2022-12-08T04:21:29.316Z,71.40
2022-12-08T04:24:06.294Z,71.26
2022-12-08T04:26:35.698Z,71.95
2022-12-08T04:29:02.290Z,71.81
2022-12-08T04:31:28.909Z,71.29
2022-12-08T04:34:04.741Z,71.11
2022-12-08T04:42:10.898Z,71.43
2022-12-08T04:44:37.451Z,71.50
2022-12-08T04:47:04.364Z,71.25
2022-12-08T04:49:50.804Z,71.18
2022-12-08T04:52:17.411Z,71.39
2022-12-08T04:54:43.949Z,71.54
2022-12-08T04:57:10.505Z,71.13
2022-12-08T04:59:37.093Z,70.83
2022-12-08T05:02:03.810Z,70.70
2022-12-08T05:04:30.644Z,71.48
2022-12-08T05:06:57.520Z,71.16
2022-12-08T05:09:52.029Z,70.98
2022-12-08T05:12:38.790Z,71.03
2022-12-08T05:15:06.059Z,71.20
2022-12-08T05:17:32.651Z,71.27
2022-12-08T05:19:59.185Z,70.69
2022-12-08T05:22:25.726Z,70.53
2022-12-08T05:24:52.263Z,70.40
2022-12-08T05:27:18.786Z,70.23
2022-12-08T05:29:45.324Z,70.12
2022-12-08T05:32:11.855Z,70.42
2022-12-08T05:34:38.534Z,70.89
2022-12-08T05:37:05.075Z,70.81
2022-12-08T05:39:31.626Z,70.78
2022-12-08T05:41:59.569Z,71.83
2022-12-08T05:44:41.590Z,71.86
2022-12-08T05:47:08.130Z,71.25
2022-12-08T05:49:34.657Z,71.25
2022-12-08T05:52:01.178Z,71.23
2022-12-08T05:54:45.479Z,71.50
2022-12-08T05:57:37.791Z,71.81
2022-12-08T06:00:05.626Z,71.47
2022-12-08T06:02:35.822Z,71.17
2022-12-08T06:05:02.792Z,71.15
2022-12-08T06:07:29.338Z,71.01
2022-12-08T06:25:40.671Z,70.07
2022-12-08T06:28:07.372Z,70.33
2022-12-08T06:30:50.731Z,71.73
2022-12-08T06:33:17.143Z,71.25
2022-12-08T06:35:43.692Z,71.37
2022-12-08T06:38:10.247Z,70.97
2022-12-08T06:40:36.810Z,71.35
2022-12-08T08:27:28.769Z,69.40
2022-12-08T08:29:55.324Z,68.48
2022-12-08T08:32:21.902Z,68.36
2022-12-08T08:34:48.504Z,68.55
2022-12-08T08:37:15.588Z,68.86
2022-12-08T08:39:43.133Z,68.10
2022-12-08T08:42:09.740Z,67.91
2022-12-08T08:44:37.482Z,68.93
2022-12-08T08:47:04.045Z,68.11
2022-12-08T08:49:30.647Z,67.01
2022-12-08T08:51:57.259Z,66.59
2022-12-08T08:54:35.826Z,65.52
2022-12-08T09:57:26.981Z,62.80
2022-12-08T09:59:59.916Z,62.47
2022-12-08T10:02:30.294Z,61.30
2022-12-08T10:04:58.754Z,60.98
2022-12-08T10:07:34.375Z,61.83
2022-12-08T10:42:53.492Z,60.58
2022-12-08T10:45:41.687Z,60.66
2022-12-08T10:48:25.457Z,59.86
2022-12-08T10:50:57.093Z,59.68
2022-12-08T10:53:26.547Z,61.24
2022-12-08T10:56:28.701Z,62.10
2022-12-08T11:30:36.903Z,63.06
2022-12-08T11:33:12.287Z,63.93
2022-12-08T11:35:41.624Z,66.16
2022-12-08T11:38:26.629Z,66.90
2022-12-08T11:41:07.518Z,66.57
2022-12-08T11:49:05.593Z,65.56
2022-12-08T11:51:34.906Z,64.31
2022-12-08T11:54:18.803Z,64.87
2022-12-08T11:56:52.854Z,62.88
2022-12-08T11:59:29.057Z,63.76
2022-12-08T12:01:59.824Z,62.68
2022-12-08T12:05:04.157Z,62.42
2022-12-08T12:07:58.852Z,62.13
2022-12-08T12:10:35.278Z,61.72
2022-12-08T12:13:23.545Z,62.56
2022-12-08T12:30:18.986Z,64.06
2022-12-08T12:32:58.301Z,62.69
2022-12-08T12:48:40.756Z,62.06
2022-12-08T12:51:44.878Z,63.04
2022-12-08T12:54:29.328Z,62.99
2022-12-08T12:57:17.472Z,63.83
2022-12-08T13:00:07.236Z,64.82
2022-12-08T13:02:39.988Z,64.35
2022-12-08T13:05:29.069Z,64.16
2022-12-08T13:07:59.668Z,63.78
2022-12-08T13:10:29.945Z,62.70
2022-12-08T13:13:10.364Z,63.85
2022-12-08T13:15:37.038Z,63.93
2022-12-08T13:18:05.232Z,63.01
2022-12-08T13:20:42.087Z,62.15
2022-12-08T13:23:46.945Z,62.04
2022-12-08T13:26:18.008Z,61.21
2022-12-08T13:34:12.909Z,60.34
2022-12-08T13:36:56.468Z,61.35
2022-12-08T13:42:03.676Z,63.06
2022-12-08T13:47:34.784Z,62.95
2022-12-08T13:59:26.931Z,63.09
2022-12-08T14:01:54.885Z,63.03
2022-12-08T14:04:53.931Z,62.92
2022-12-08T14:07:12.031Z,62.02
2022-12-08T14:09:40.260Z,61.94
2022-12-08T14:12:17.485Z,62.29
2022-12-08T14:15:02.608Z,62.32
2022-12-08T14:23:10.112Z,62.34
2022-12-08T14:42:02.865Z,62.67
2022-12-08T14:44:32.194Z,62.77
2022-12-08T14:47:07.279Z,61.42
2022-12-08T14:49:39.358Z,61.11
2022-12-08T14:52:12.428Z,61.11
2022-12-08T14:54:40.051Z,61.04
2022-12-08T14:57:08.040Z,60.43
2022-12-08T14:59:37.892Z,60.67
2022-12-08T15:02:21.818Z,60.80
2022-12-08T15:05:29.192Z,64.20
2022-12-08T15:08:02.481Z,65.32
2022-12-08T15:10:32.091Z,64.31
2022-12-08T15:27:40.924Z,65.36
2022-12-08T15:30:15.670Z,64.43
2022-12-08T15:32:43.055Z,65.39
2022-12-08T15:35:18.739Z,66.98
2022-12-08T15:54:11.524Z,66.61
2022-12-08T15:57:17.232Z,67.81
2022-12-08T15:59:35.733Z,67.02
2022-12-08T16:02:02.416Z,65.52
2022-12-08T16:07:26.008Z,65.78
2022-12-08T16:09:53.463Z,69.66
2022-12-08T16:38:01.863Z,74.03
2022-12-08T16:40:28.459Z,74.37
2022-12-08T16:42:55.103Z,75.26
2022-12-08T16:45:37.629Z,74.81
2022-12-08T16:48:14.622Z,75.70
2022-12-08T16:50:45.795Z,74.55
2022-12-08T16:53:14.817Z,72.52
2022-12-08T16:55:47.478Z,72.32
2022-12-08T16:58:14.614Z,72.33
2022-12-08T17:00:41.903Z,72.10
2022-12-08T17:03:08.799Z,73.22
2022-12-08T17:05:36.477Z,71.81
2022-12-08T17:08:03.176Z,72.85
2022-12-08T17:10:31.890Z,72.91
2022-12-08T17:13:01.822Z,72.06
2022-12-08T17:15:28.881Z,72.13
2022-12-08T17:17:55.494Z,71.32
2022-12-08T17:20:25.365Z,70.22
2022-12-08T17:23:03.594Z,70.47
2022-12-08T17:28:37.118Z,71.96
2022-12-08T17:31:14.406Z,70.08
2022-12-08T17:33:41.728Z,70.42
2022-12-08T17:36:11.435Z,70.51
2022-12-08T17:41:27.680Z,71.70
2022-12-08T17:43:54.879Z,68.93
2022-12-08T17:46:23.067Z,70.58
2022-12-08T17:48:50.127Z,70.24
2022-12-08T17:51:17.091Z,69.42
2022-12-08T17:53:44.047Z,69.39
2022-12-08T17:56:19.024Z,67.58
2022-12-08T17:58:51.295Z,67.44
2022-12-08T18:01:20.894Z,67.70
2022-12-08T18:03:47.530Z,68.13
2022-12-08T18:06:14.197Z,68.78
2022-12-08T18:08:40.846Z,69.03
2022-12-08T18:11:14.205Z,68.57
2022-12-08T18:13:40.982Z,69.57
2022-12-08T18:16:07.749Z,69.09
2022-12-08T18:18:34.452Z,67.65
2022-12-08T18:21:02.560Z,68.00
2022-12-08T18:23:29.387Z,67.05
2022-12-08T18:25:55.989Z,66.30
2022-12-08T18:28:23.739Z,66.49
2022-12-08T18:30:50.768Z,66.29
2022-12-08T18:33:17.696Z,65.07
2022-12-08T18:35:44.496Z,65.21
2022-12-08T18:38:13.698Z,64.63
2022-12-08T18:40:43.239Z,66.39
2022-12-08T18:43:09.819Z,65.83
2022-12-08T18:45:44.253Z,66.26
2022-12-08T18:48:11.538Z,67.00
2022-12-08T18:50:43.044Z,66.21
2022-12-08T19:15:08.013Z,66.67
2022-12-08T19:17:34.954Z,65.45
2022-12-08T19:20:01.792Z,64.57
2022-12-08T19:22:29.267Z,65.42
2022-12-08T19:27:34.182Z,64.44
2022-12-08T19:30:00.829Z,66.46
2022-12-08T19:32:27.474Z,65.39
2022-12-08T19:34:54.317Z,68.18
2022-12-08T19:37:21.039Z,67.07
2022-12-08T19:40:06.311Z,66.42
2022-12-08T19:42:51.480Z,67.21
2022-12-08T19:45:21.615Z,66.18
2022-12-08T19:47:48.921Z,66.98
2022-12-08T19:50:35.494Z,65.40
2022-12-08T19:53:17.987Z,67.33
2022-12-08T19:55:44.609Z,67.08
2022-12-08T19:58:11.554Z,68.64
2022-12-08T20:00:39.268Z,66.94
2022-12-08T20:25:59.401Z,68.04
2022-12-08T20:28:25.951Z,66.60
2022-12-08T20:30:52.737Z,65.64
2022-12-08T20:33:19.926Z,66.55
2022-12-08T20:35:46.917Z,67.69
2022-12-08T20:38:16.041Z,66.26
2022-12-08T20:40:44.158Z,67.68
2022-12-08T20:43:10.792Z,67.07
2022-12-08T20:45:37.359Z,66.09
2022-12-08T20:48:07.007Z,66.46
2022-12-08T20:50:33.641Z,66.10
2022-12-08T20:53:00.501Z,65.73
2022-12-08T20:55:27.229Z,66.61
2022-12-08T20:57:54.007Z,66.13
2022-12-08T21:00:23.240Z,65.42
2022-12-08T21:02:56.058Z,64.97
2022-12-08T21:05:23.530Z,67.19
2022-12-08T21:07:50.236Z,67.35
2022-12-08T21:10:17.361Z,67.06
2022-12-08T21:12:43.984Z,69.69
2022-12-08T21:15:12.501Z,67.76
2022-12-08T21:17:39.463Z,67.31
2022-12-08T21:20:10.580Z,66.72
2022-12-08T21:22:40.523Z,70.56
2022-12-08T21:25:08.639Z,69.52
2022-12-08T21:30:17.202Z,73.07
2022-12-08T21:35:25.204Z,75.92
2022-12-08T21:37:51.967Z,73.37
2022-12-08T21:40:18.973Z,72.32
2022-12-08T21:43:42.131Z,72.03
2022-12-08T21:46:39.778Z,72.13
2022-12-08T21:49:07.077Z,72.49
2022-12-08T21:51:35.390Z,71.26
2022-12-08T21:54:01.971Z,70.10
2022-12-08T21:56:28.556Z,69.29
2022-12-08T21:58:55.256Z,70.14
2022-12-08T22:01:54.001Z,73.42
2022-12-08T22:04:21.899Z,74.84
2022-12-08T22:06:48.728Z,71.69
2022-12-08T22:09:15.568Z,70.38
2022-12-08T22:12:55.353Z,71.79
2022-12-08T22:16:21.572Z,69.97
2022-12-08T22:26:54.087Z,69.74
2022-12-08T22:29:26.986Z,68.63
2022-12-08T22:31:53.594Z,69.66
2022-12-08T22:34:20.249Z,69.73
2022-12-08T22:36:49.036Z,68.70
2022-12-08T22:39:15.739Z,70.65
2022-12-08T22:41:42.259Z,70.01
2022-12-08T22:44:09.135Z,69.20
2022-12-08T22:49:25.210Z,68.05
2022-12-08T22:51:52.912Z,67.83
2022-12-08T22:54:19.564Z,67.85
2022-12-08T22:56:46.310Z,68.30
2022-12-08T22:59:12.937Z,68.99
2022-12-08T23:02:26.580Z,68.08
2022-12-08T23:08:16.159Z,67.98
2022-12-08T23:10:44.373Z,68.80
2022-12-08T23:13:12.057Z,68.45
2022-12-08T23:15:39.607Z,67.66
2022-12-08T23:18:07.588Z,67.88
2022-12-08T23:21:09.714Z,67.93
2022-12-08T23:23:36.803Z,67.43
2022-12-08T23:26:04.467Z,68.13
2022-12-08T23:28:31.080Z,68.95
2022-12-08T23:30:57.763Z,68.70
2022-12-08T23:36:58.564Z,68.19
2022-12-08T23:39:25.198Z,68.87
2022-12-08T23:41:51.773Z,69.34
2022-12-08T23:44:18.634Z,68.75
2022-12-08T23:46:45.516Z,68.18
2022-12-08T23:49:12.388Z,69.04
2022-12-08T23:51:57.741Z,69.69
2022-12-08T23:54:24.349Z,69.26
2022-12-08T23:56:51.120Z,68.67
2022-12-08T23:59:17.704Z,68.09
